sensor_id;sensor_type;location;lat;lon;timestamp;temperature;humidity
21891;DHT22;11110;52.386;16.940;2023-04-15T00:00:56;25.20;42.20
21891;DHT22;11110;52.386;16.940;2023-04-15T00:03:26;25.20;41.60
21891;DHT22;11110;52.386;16.940;2023-04-15T00:05:56;25.10;41.60
21891;DHT22;11110;52.386;16.940;2023-04-15T00:08:27;25.10;41.60
21891;DHT22;11110;52.386;16.940;2023-04-15T00:10:56;25.00;41.70
21891;DHT22;11110;52.386;16.940;2023-04-15T00:13:28;25.00;41.80
21891;DHT22;11110;52.386;16.940;2023-04-15T00:15:57;25.00;41.80
21891;DHT22;11110;52.386;16.940;2023-04-15T00:18:25;25.00;41.80
21891;DHT22;11110;52.386;16.940;2023-04-15T00:20:55;24.90;41.80
21891;DHT22;11110;52.386;16.940;2023-04-15T00:23:24;25.00;42.50
21891;DHT22;11110;52.386;16.940;2023-04-15T00:25:54;24.90;41.70
21891;DHT22;11110;52.386;16.940;2023-04-15T00:28:22;25.00;42.00
21891;DHT22;11110;52.386;16.940;2023-04-15T00:30:51;24.90;41.80
21891;DHT22;11110;52.386;16.940;2023-04-15T00:33:19;24.90;41.80
21891;DHT22;11110;52.386;16.940;2023-04-15T00:35:48;24.90;41.70
21891;DHT22;11110;52.386;16.940;2023-04-15T00:38:16;24.90;41.70
21891;DHT22;11110;52.386;16.940;2023-04-15T00:40:46;24.80;41.70
21891;DHT22;11110;52.386;16.940;2023-04-15T00:43:16;24.80;41.90
21891;DHT22;11110;52.386;16.940;2023-04-15T00:45:45;24.90;41.80
21891;DHT22;11110;52.386;16.940;2023-04-15T00:48:15;24.90;41.70
21891;DHT22;11110;52.386;16.940;2023-04-15T00:50:44;24.90;41.80
21891;DHT22;11110;52.386;16.940;2023-04-15T00:53:12;24.80;41.80
21891;DHT22;11110;52.386;16.940;2023-04-15T00:55:41;24.80;41.70
21891;DHT22;11110;52.386;16.940;2023-04-15T00:58:09;24.80;41.90
21891;DHT22;11110;52.386;16.940;2023-04-15T01:00:39;24.80;41.90
21891;DHT22;11110;52.386;16.940;2023-04-15T01:03:08;24.80;41.90
21891;DHT22;11110;52.386;16.940;2023-04-15T01:05:37;24.70;41.90
21891;DHT22;11110;52.386;16.940;2023-04-15T01:08:05;24.70;41.90
21891;DHT22;11110;52.386;16.940;2023-04-15T01:10:34;24.60;41.90
21891;DHT22;11110;52.386;16.940;2023-04-15T01:13:03;24.70;42.00
21891;DHT22;11110;52.386;16.940;2023-04-15T01:15:35;24.60;42.00
21891;DHT22;11110;52.386;16.940;2023-04-15T01:18:05;24.60;42.00
21891;DHT22;11110;52.386;16.940;2023-04-15T01:20:37;24.60;42.00
21891;DHT22;11110;52.386;16.940;2023-04-15T01:23:06;24.50;42.00
21891;DHT22;11110;52.386;16.940;2023-04-15T01:25:36;24.50;42.10
21891;DHT22;11110;52.386;16.940;2023-04-15T01:28:04;24.50;42.00
21891;DHT22;11110;52.386;16.940;2023-04-15T01:30:33;24.50;42.00
21891;DHT22;11110;52.386;16.940;2023-04-15T01:33:02;24.50;42.10
21891;DHT22;11110;52.386;16.940;2023-04-15T01:35:31;24.40;42.00
21891;DHT22;11110;52.386;16.940;2023-04-15T01:38:04;24.50;42.10
21891;DHT22;11110;52.386;16.940;2023-04-15T01:40:35;24.50;42.70
21891;DHT22;11110;52.386;16.940;2023-04-15T01:43:04;24.50;42.20
21891;DHT22;11110;52.386;16.940;2023-04-15T01:45:32;24.40;42.10
21891;DHT22;11110;52.386;16.940;2023-04-15T01:48:03;24.40;42.10
21891;DHT22;11110;52.386;16.940;2023-04-15T01:50:32;24.40;42.10
21891;DHT22;11110;52.386;16.940;2023-04-15T01:53:02;24.50;42.20
21891;DHT22;11110;52.386;16.940;2023-04-15T01:55:31;24.40;42.80
21891;DHT22;11110;52.386;16.940;2023-04-15T01:58:01;24.50;42.20
21891;DHT22;11110;52.386;16.940;2023-04-15T02:00:29;24.40;42.20
21891;DHT22;11110;52.386;16.940;2023-04-15T02:02:58;24.40;42.20
21891;DHT22;11110;52.386;16.940;2023-04-15T02:05:27;24.40;42.20
21891;DHT22;11110;52.386;16.940;2023-04-15T02:07:56;24.40;42.30
21891;DHT22;11110;52.386;16.940;2023-04-15T02:10:25;24.30;42.30
21891;DHT22;11110;52.386;16.940;2023-04-15T02:12:53;24.40;42.50
21891;DHT22;11110;52.386;16.940;2023-04-15T02:15:23;24.30;42.50
21891;DHT22;11110;52.386;16.940;2023-04-15T02:17:52;24.30;42.50
21891;DHT22;11110;52.386;16.940;2023-04-15T02:20:22;24.30;42.60
21891;DHT22;11110;52.386;16.940;2023-04-15T02:22:50;24.30;42.70
21891;DHT22;11110;52.386;16.940;2023-04-15T02:25:19;24.30;42.60
21891;DHT22;11110;52.386;16.940;2023-04-15T02:27:47;24.20;42.60
21891;DHT22;11110;52.386;16.940;2023-04-15T02:30:16;24.20;42.50
21891;DHT22;11110;52.386;16.940;2023-04-15T02:32:46;24.30;42.60
21891;DHT22;11110;52.386;16.940;2023-04-15T02:35:15;24.30;42.70
21891;DHT22;11110;52.386;16.940;2023-04-15T02:37:45;24.30;42.70
21891;DHT22;11110;52.386;16.940;2023-04-15T02:40:14;24.20;42.60
21891;DHT22;11110;52.386;16.940;2023-04-15T02:42:43;24.30;42.60
21891;DHT22;11110;52.386;16.940;2023-04-15T02:45:14;24.30;42.60
21891;DHT22;11110;52.386;16.940;2023-04-15T02:47:45;24.20;42.60
21891;DHT22;11110;52.386;16.940;2023-04-15T02:50:14;24.20;42.90
21891;DHT22;11110;52.386;16.940;2023-04-15T02:52:43;24.20;43.00
21891;DHT22;11110;52.386;16.940;2023-04-15T02:55:12;24.20;43.00
21891;DHT22;11110;52.386;16.940;2023-04-15T02:57:41;24.20;43.10
21891;DHT22;11110;52.386;16.940;2023-04-15T03:00:11;24.20;43.40
21891;DHT22;11110;52.386;16.940;2023-04-15T03:02:43;24.20;43.60
21891;DHT22;11110;52.386;16.940;2023-04-15T03:05:13;24.20;43.80
21891;DHT22;11110;52.386;16.940;2023-04-15T03:07:50;24.20;44.10
21891;DHT22;11110;52.386;16.940;2023-04-15T03:10:19;24.20;44.30
21891;DHT22;11110;52.386;16.940;2023-04-15T03:12:48;24.20;44.50
21891;DHT22;11110;52.386;16.940;2023-04-15T03:15:19;24.20;44.50
21891;DHT22;11110;52.386;16.940;2023-04-15T03:17:50;24.20;44.70
21891;DHT22;11110;52.386;16.940;2023-04-15T03:20:21;24.20;44.90
21891;DHT22;11110;52.386;16.940;2023-04-15T03:22:49;24.10;44.90
21891;DHT22;11110;52.386;16.940;2023-04-15T03:25:19;24.10;45.10
21891;DHT22;11110;52.386;16.940;2023-04-15T03:27:48;24.10;45.30
21891;DHT22;11110;52.386;16.940;2023-04-15T03:30:17;24.10;45.20
21891;DHT22;11110;52.386;16.940;2023-04-15T03:32:45;24.00;45.40
21891;DHT22;11110;52.386;16.940;2023-04-15T03:35:14;24.00;46.30
21891;DHT22;11110;52.386;16.940;2023-04-15T03:37:44;24.00;45.70
21891;DHT22;11110;52.386;16.940;2023-04-15T03:40:15;24.10;45.80
21891;DHT22;11110;52.386;16.940;2023-04-15T03:42:44;24.00;46.00
21891;DHT22;11110;52.386;16.940;2023-04-15T03:45:12;23.90;45.90
21891;DHT22;11110;52.386;16.940;2023-04-15T03:47:41;23.90;45.90
21891;DHT22;11110;52.386;16.940;2023-04-15T03:50:09;25.50;46.80
21891;DHT22;11110;52.386;16.940;2023-04-15T03:52:38;23.90;46.20
21891;DHT22;11110;52.386;16.940;2023-04-15T03:55:08;23.90;46.40
21891;DHT22;11110;52.386;16.940;2023-04-15T03:57:37;23.90;46.70
21891;DHT22;11110;52.386;16.940;2023-04-15T04:00:08;23.80;46.70
21891;DHT22;11110;52.386;16.940;2023-04-15T04:02:39;23.80;46.80
21891;DHT22;11110;52.386;16.940;2023-04-15T04:05:08;23.80;46.60
21891;DHT22;11110;52.386;16.940;2023-04-15T04:07:37;23.80;46.60
21891;DHT22;11110;52.386;16.940;2023-04-15T04:10:08;23.80;46.80
21891;DHT22;11110;52.386;16.940;2023-04-15T04:12:36;23.70;46.80
21891;DHT22;11110;52.386;16.940;2023-04-15T04:15:06;23.80;47.10
21891;DHT22;11110;52.386;16.940;2023-04-15T04:17:35;23.80;47.10
21891;DHT22;11110;52.386;16.940;2023-04-15T04:20:05;23.70;47.10
21891;DHT22;11110;52.386;16.940;2023-04-15T04:22:36;23.80;47.20
21891;DHT22;11110;52.386;16.940;2023-04-15T04:25:08;23.70;47.30
21891;DHT22;11110;52.386;16.940;2023-04-15T04:27:37;23.60;47.20
21891;DHT22;11110;52.386;16.940;2023-04-15T04:30:07;23.60;47.40
21891;DHT22;11110;52.386;16.940;2023-04-15T04:32:35;23.60;47.40
21891;DHT22;11110;52.386;16.940;2023-04-15T04:35:04;23.60;47.70
21891;DHT22;11110;52.386;16.940;2023-04-15T04:37:33;23.60;47.60
21891;DHT22;11110;52.386;16.940;2023-04-15T04:40:02;23.60;47.80
21891;DHT22;11110;52.386;16.940;2023-04-15T04:42:32;23.60;47.80
21891;DHT22;11110;52.386;16.940;2023-04-15T04:45:00;23.50;47.90
21891;DHT22;11110;52.386;16.940;2023-04-15T04:47:29;23.50;47.80
21891;DHT22;11110;52.386;16.940;2023-04-15T04:49:58;23.50;47.80
21891;DHT22;11110;52.386;16.940;2023-04-15T04:52:26;23.50;47.90
21891;DHT22;11110;52.386;16.940;2023-04-15T04:54:55;23.60;47.90
21891;DHT22;11110;52.386;16.940;2023-04-15T04:57:23;23.60;47.70
21891;DHT22;11110;52.386;16.940;2023-04-15T04:59:53;23.60;47.90
21891;DHT22;11110;52.386;16.940;2023-04-15T05:02:22;23.50;47.90
21891;DHT22;11110;52.386;16.940;2023-04-15T05:04:53;23.50;47.90
21891;DHT22;11110;52.386;16.940;2023-04-15T05:07:22;23.50;48.00
21891;DHT22;11110;52.386;16.940;2023-04-15T05:09:50;23.60;48.10
21891;DHT22;11110;52.386;16.940;2023-04-15T05:12:19;23.70;48.20
21891;DHT22;11110;52.386;16.940;2023-04-15T05:14:47;23.60;48.20
21891;DHT22;11110;52.386;16.940;2023-04-15T05:17:17;23.60;48.10
21891;DHT22;11110;52.386;16.940;2023-04-15T05:19:46;23.70;48.10
21891;DHT22;11110;52.386;16.940;2023-04-15T05:22:14;23.60;48.20
21891;DHT22;11110;52.386;16.940;2023-04-15T05:24:43;23.60;48.30
21891;DHT22;11110;52.386;16.940;2023-04-15T05:27:11;23.60;48.40
21891;DHT22;11110;52.386;16.940;2023-04-15T05:29:40;23.50;48.40
21891;DHT22;11110;52.386;16.940;2023-04-15T05:32:08;23.50;48.50
21891;DHT22;11110;52.386;16.940;2023-04-15T05:34:39;23.50;48.60
21891;DHT22;11110;52.386;16.940;2023-04-15T05:37:07;23.60;48.70
21891;DHT22;11110;52.386;16.940;2023-04-15T05:39:36;23.60;48.70
21891;DHT22;11110;52.386;16.940;2023-04-15T05:42:04;23.60;48.60
21891;DHT22;11110;52.386;16.940;2023-04-15T05:44:33;23.50;48.80
21891;DHT22;11110;52.386;16.940;2023-04-15T05:47:01;23.50;48.80
21891;DHT22;11110;52.386;16.940;2023-04-15T05:49:32;23.50;48.70
21891;DHT22;11110;52.386;16.940;2023-04-15T05:52:01;23.50;49.50
21891;DHT22;11110;52.386;16.940;2023-04-15T05:54:30;23.60;48.80
21891;DHT22;11110;52.386;16.940;2023-04-15T05:56:58;23.60;48.80
21891;DHT22;11110;52.386;16.940;2023-04-15T05:59:27;23.60;48.80
21891;DHT22;11110;52.386;16.940;2023-04-15T06:01:55;23.50;48.80
21891;DHT22;11110;52.386;16.940;2023-04-15T06:04:24;23.50;48.80
21891;DHT22;11110;52.386;16.940;2023-04-15T06:06:53;23.50;48.80
21891;DHT22;11110;52.386;16.940;2023-04-15T06:09:23;23.60;49.20
21891;DHT22;11110;52.386;16.940;2023-04-15T06:11:51;23.50;49.00
21891;DHT22;11110;52.386;16.940;2023-04-15T06:14:20;23.50;49.00
21891;DHT22;11110;52.386;16.940;2023-04-15T06:16:48;23.60;49.10
21891;DHT22;11110;52.386;16.940;2023-04-15T06:19:17;23.60;49.00
21891;DHT22;11110;52.386;16.940;2023-04-15T06:21:46;23.60;49.00
21891;DHT22;11110;52.386;16.940;2023-04-15T06:24:15;23.70;49.20
21891;DHT22;11110;52.386;16.940;2023-04-15T06:26:46;23.60;49.00
21891;DHT22;11110;52.386;16.940;2023-04-15T06:29:14;23.70;49.10
21891;DHT22;11110;52.386;16.940;2023-04-15T06:31:43;23.70;49.00
21891;DHT22;11110;52.386;16.940;2023-04-15T06:34:12;23.70;49.10
21891;DHT22;11110;52.386;16.940;2023-04-15T06:36:40;23.70;49.10
21891;DHT22;11110;52.386;16.940;2023-04-15T06:39:09;23.50;49.00
21891;DHT22;11110;52.386;16.940;2023-04-15T06:41:37;23.70;49.20
21891;DHT22;11110;52.386;16.940;2023-04-15T06:44:07;23.80;49.40
21891;DHT22;11110;52.386;16.940;2023-04-15T06:46:36;23.80;49.40
21891;DHT22;11110;52.386;16.940;2023-04-15T06:49:04;23.80;49.90
21891;DHT22;11110;52.386;16.940;2023-04-15T06:51:33;23.80;49.70
21891;DHT22;11110;52.386;16.940;2023-04-15T06:54:02;23.80;49.10
21891;DHT22;11110;52.386;16.940;2023-04-15T06:56:32;23.80;49.30
21891;DHT22;11110;52.386;16.940;2023-04-15T06:59:01;23.90;49.30
21891;DHT22;11110;52.386;16.940;2023-04-15T07:01:31;23.90;49.30
21891;DHT22;11110;52.386;16.940;2023-04-15T07:03:59;24.00;49.30
21891;DHT22;11110;52.386;16.940;2023-04-15T07:06:28;24.00;49.30
21891;DHT22;11110;52.386;16.940;2023-04-15T07:08:56;24.00;49.20
21891;DHT22;11110;52.386;16.940;2023-04-15T07:11:25;24.00;49.40
21891;DHT22;11110;52.386;16.940;2023-04-15T07:13:54;24.00;49.30
21891;DHT22;11110;52.386;16.940;2023-04-15T07:16:22;24.00;49.20
21891;DHT22;11110;52.386;16.940;2023-04-15T07:18:56;24.00;49.00
21891;DHT22;11110;52.386;16.940;2023-04-15T07:21:24;24.10;49.10
21891;DHT22;11110;52.386;16.940;2023-04-15T07:23:53;24.10;49.10
21891;DHT22;11110;52.386;16.940;2023-04-15T07:26:22;24.10;49.20
21891;DHT22;11110;52.386;16.940;2023-04-15T07:28:50;24.10;49.10
21891;DHT22;11110;52.386;16.940;2023-04-15T07:31:19;24.10;49.20
21891;DHT22;11110;52.386;16.940;2023-04-15T07:33:47;24.10;49.10
21891;DHT22;11110;52.386;16.940;2023-04-15T07:36:17;24.20;49.20
21891;DHT22;11110;52.386;16.940;2023-04-15T07:38:46;24.20;49.20
21891;DHT22;11110;52.386;16.940;2023-04-15T07:41:14;24.20;49.40
21891;DHT22;11110;52.386;16.940;2023-04-15T07:43:43;24.20;49.30
21891;DHT22;11110;52.386;16.940;2023-04-15T07:46:11;24.20;49.20
21891;DHT22;11110;52.386;16.940;2023-04-15T07:48:39;24.30;49.40
21891;DHT22;11110;52.386;16.940;2023-04-15T07:51:08;24.20;49.20
21891;DHT22;11110;52.386;16.940;2023-04-15T07:53:40;24.30;49.50
21891;DHT22;11110;52.386;16.940;2023-04-15T07:56:09;24.30;49.40
21891;DHT22;11110;52.386;16.940;2023-04-15T07:58:37;24.30;49.30
21891;DHT22;11110;52.386;16.940;2023-04-15T08:01:05;24.30;49.20
21891;DHT22;11110;52.386;16.940;2023-04-15T08:03:34;24.30;49.30
21891;DHT22;11110;52.386;16.940;2023-04-15T08:06:03;24.30;49.30
21891;DHT22;11110;52.386;16.940;2023-04-15T08:08:32;24.30;49.20
21891;DHT22;11110;52.386;16.940;2023-04-15T08:11:02;24.20;49.20
21891;DHT22;11110;52.386;16.940;2023-04-15T08:13:31;24.40;49.20
21891;DHT22;11110;52.386;16.940;2023-04-15T08:16:21;24.40;49.40
21891;DHT22;11110;52.386;16.940;2023-04-15T08:18:53;24.40;49.30
21891;DHT22;11110;52.386;16.940;2023-04-15T08:21:22;24.40;49.50
21891;DHT22;11110;52.386;16.940;2023-04-15T08:23:52;24.30;49.20
21891;DHT22;11110;52.386;16.940;2023-04-15T08:26:22;24.40;49.30
21891;DHT22;11110;52.386;16.940;2023-04-15T08:28:50;24.40;49.40
21891;DHT22;11110;52.386;16.940;2023-04-15T08:31:19;24.40;49.50
21891;DHT22;11110;52.386;16.940;2023-04-15T08:33:48;24.30;49.60
21891;DHT22;11110;52.386;16.940;2023-04-15T08:36:18;24.30;49.40
21891;DHT22;11110;52.386;16.940;2023-04-15T08:38:47;24.30;49.50
21891;DHT22;11110;52.386;16.940;2023-04-15T08:41:20;24.40;49.50
21891;DHT22;11110;52.386;16.940;2023-04-15T08:43:56;24.40;49.70
21891;DHT22;11110;52.386;16.940;2023-04-15T08:46:24;24.40;49.70
21891;DHT22;11110;52.386;16.940;2023-04-15T08:48:56;24.50;49.60
21891;DHT22;11110;52.386;16.940;2023-04-15T08:51:24;24.40;49.80
21891;DHT22;11110;52.386;16.940;2023-04-15T08:53:54;24.30;49.60
21891;DHT22;11110;52.386;16.940;2023-04-15T08:56:24;24.40;49.50
21891;DHT22;11110;52.386;16.940;2023-04-15T08:58:54;24.40;49.60
21891;DHT22;11110;52.386;16.940;2023-04-15T09:01:23;24.40;49.80
21891;DHT22;11110;52.386;16.940;2023-04-15T09:03:53;24.40;49.90
21891;DHT22;11110;52.386;16.940;2023-04-15T09:06:22;24.40;49.90
21891;DHT22;11110;52.386;16.940;2023-04-15T09:08:51;24.50;50.00
21891;DHT22;11110;52.386;16.940;2023-04-15T09:11:21;24.50;50.00
21891;DHT22;11110;52.386;16.940;2023-04-15T09:13:49;24.60;50.10
21891;DHT22;11110;52.386;16.940;2023-04-15T09:16:19;24.60;50.20
21891;DHT22;11110;52.386;16.940;2023-04-15T09:18:48;24.70;50.30
21891;DHT22;11110;52.386;16.940;2023-04-15T09:21:17;24.70;50.10
21891;DHT22;11110;52.386;16.940;2023-04-15T09:23:55;24.70;50.00
21891;DHT22;11110;52.386;16.940;2023-04-15T09:26:35;24.80;49.80
21891;DHT22;11110;52.386;16.940;2023-04-15T09:29:05;24.80;49.90
21891;DHT22;11110;52.386;16.940;2023-04-15T09:31:36;24.70;50.00
21891;DHT22;11110;52.386;16.940;2023-04-15T09:34:05;24.80;50.00
21891;DHT22;11110;52.386;16.940;2023-04-15T09:36:58;24.80;49.90
21891;DHT22;11110;52.386;16.940;2023-04-15T09:39:27;24.80;49.90
21891;DHT22;11110;52.386;16.940;2023-04-15T09:42:05;24.80;49.90
21891;DHT22;11110;52.386;16.940;2023-04-15T09:44:34;24.40;49.90
21891;DHT22;11110;52.386;16.940;2023-04-15T09:47:04;24.90;50.30
21891;DHT22;11110;52.386;16.940;2023-04-15T09:49:33;24.90;50.20
21891;DHT22;11110;52.386;16.940;2023-04-15T09:52:02;25.00;50.60
21891;DHT22;11110;52.386;16.940;2023-04-15T09:54:34;24.90;48.90
21891;DHT22;11110;52.386;16.940;2023-04-15T09:57:06;24.70;44.70
21891;DHT22;11110;52.386;16.940;2023-04-15T09:59:36;24.60;44.00
21891;DHT22;11110;52.386;16.940;2023-04-15T10:02:06;24.50;43.40
21891;DHT22;11110;52.386;16.940;2023-04-15T10:04:38;24.50;43.50
21891;DHT22;11110;52.386;16.940;2023-04-15T10:07:07;24.50;43.50
21891;DHT22;11110;52.386;16.940;2023-04-15T10:09:37;24.40;43.50
21891;DHT22;11110;52.386;16.940;2023-04-15T10:12:06;24.20;44.00
21891;DHT22;11110;52.386;16.940;2023-04-15T10:14:37;24.20;44.10
21891;DHT22;11110;52.386;16.940;2023-04-15T10:17:07;24.10;44.10
21891;DHT22;11110;52.386;16.940;2023-04-15T10:19:39;24.10;44.50
21891;DHT22;11110;52.386;16.940;2023-04-15T10:22:08;24.10;44.70
21891;DHT22;11110;52.386;16.940;2023-04-15T10:24:38;23.90;44.90
21891;DHT22;11110;52.386;16.940;2023-04-15T10:27:07;23.90;44.90
21891;DHT22;11110;52.386;16.940;2023-04-15T10:29:36;23.90;45.10
21891;DHT22;11110;52.386;16.940;2023-04-15T10:32:05;23.90;45.00
21891;DHT22;11110;52.386;16.940;2023-04-15T10:34:36;23.90;44.90
21891;DHT22;11110;52.386;16.940;2023-04-15T10:37:07;23.90;45.30
21891;DHT22;11110;52.386;16.940;2023-04-15T10:39:38;23.90;45.80
21891;DHT22;11110;52.386;16.940;2023-04-15T10:42:08;23.90;46.40
21891;DHT22;11110;52.386;16.940;2023-04-15T10:44:38;23.90;46.50
21891;DHT22;11110;52.386;16.940;2023-04-15T10:47:14;23.90;46.90
21891;DHT22;11110;52.386;16.940;2023-04-15T10:49:47;24.10;47.30
21891;DHT22;11110;52.386;16.940;2023-04-15T10:52:21;24.10;47.00
21891;DHT22;11110;52.386;16.940;2023-04-15T10:55:01;24.10;46.00
21891;DHT22;11110;52.386;16.940;2023-04-15T10:57:34;24.20;45.50
21891;DHT22;11110;52.386;16.940;2023-04-15T11:00:11;24.20;45.90
21891;DHT22;11110;52.386;16.940;2023-04-15T11:02:43;24.20;46.10
21891;DHT22;11110;52.386;16.940;2023-04-15T11:05:14;24.20;46.60
21891;DHT22;11110;52.386;16.940;2023-04-15T11:07:52;24.20;47.00
21891;DHT22;11110;52.386;16.940;2023-04-15T11:10:51;24.30;46.80
21891;DHT22;11110;52.386;16.940;2023-04-15T11:13:27;24.30;46.20
21891;DHT22;11110;52.386;16.940;2023-04-15T11:15:59;24.30;46.20
21891;DHT22;11110;52.386;16.940;2023-04-15T11:18:30;24.30;46.50
21891;DHT22;11110;52.386;16.940;2023-04-15T11:21:05;24.30;46.20
21891;DHT22;11110;52.386;16.940;2023-04-15T11:23:36;24.40;45.40
21891;DHT22;11110;52.386;16.940;2023-04-15T11:26:07;24.40;45.30
21891;DHT22;11110;52.386;16.940;2023-04-15T11:28:39;24.30;45.00
21891;DHT22;11110;52.386;16.940;2023-04-15T11:31:09;24.40;44.70
21891;DHT22;11110;52.386;16.940;2023-04-15T11:33:44;24.20;45.40
21891;DHT22;11110;52.386;16.940;2023-04-15T11:36:15;24.30;45.60
21891;DHT22;11110;52.386;16.940;2023-04-15T11:38:45;24.20;45.80
21891;DHT22;11110;52.386;16.940;2023-04-15T11:41:14;24.20;45.10
21891;DHT22;11110;52.386;16.940;2023-04-15T11:43:47;24.20;45.10
21891;DHT22;11110;52.386;16.940;2023-04-15T11:46:15;24.20;45.40
21891;DHT22;11110;52.386;16.940;2023-04-15T11:48:45;24.30;45.60
21891;DHT22;11110;52.386;16.940;2023-04-15T11:51:15;24.30;45.40
21891;DHT22;11110;52.386;16.940;2023-04-15T11:53:45;24.40;45.60
21891;DHT22;11110;52.386;16.940;2023-04-15T11:56:18;24.40;46.00
21891;DHT22;11110;52.386;16.940;2023-04-15T11:58:50;24.50;46.40
21891;DHT22;11110;52.386;16.940;2023-04-15T12:01:19;24.50;46.00
21891;DHT22;11110;52.386;16.940;2023-04-15T12:03:48;24.50;46.60
21891;DHT22;11110;52.386;16.940;2023-04-15T12:06:19;24.50;47.40
21891;DHT22;11110;52.386;16.940;2023-04-15T12:08:49;24.50;46.60
21891;DHT22;11110;52.386;16.940;2023-04-15T12:11:19;24.50;46.30
21891;DHT22;11110;52.386;16.940;2023-04-15T12:13:49;24.50;46.10
21891;DHT22;11110;52.386;16.940;2023-04-15T12:16:18;24.50;46.00
21891;DHT22;11110;52.386;16.940;2023-04-15T12:18:47;24.50;46.00
21891;DHT22;11110;52.386;16.940;2023-04-15T12:21:20;24.50;47.00
21891;DHT22;11110;52.386;16.940;2023-04-15T12:23:48;24.50;46.90
21891;DHT22;11110;52.386;16.940;2023-04-15T12:26:25;24.40;47.10
21891;DHT22;11110;52.386;16.940;2023-04-15T12:28:54;24.50;47.30
21891;DHT22;11110;52.386;16.940;2023-04-15T12:31:23;24.50;47.20
21891;DHT22;11110;52.386;16.940;2023-04-15T12:33:54;24.40;47.10
21891;DHT22;11110;52.386;16.940;2023-04-15T12:36:24;24.50;47.30
21891;DHT22;11110;52.386;16.940;2023-04-15T12:38:53;24.50;46.90
21891;DHT22;11110;52.386;16.940;2023-04-15T12:41:22;24.40;46.80
21891;DHT22;11110;52.386;16.940;2023-04-15T12:43:51;24.50;47.00
21891;DHT22;11110;52.386;16.940;2023-04-15T12:46:19;24.30;46.90
21891;DHT22;11110;52.386;16.940;2023-04-15T12:48:49;24.40;47.10
21891;DHT22;11110;52.386;16.940;2023-04-15T12:51:18;24.40;47.50
21891;DHT22;11110;52.386;16.940;2023-04-15T12:53:48;24.50;47.50
21891;DHT22;11110;52.386;16.940;2023-04-15T12:56:17;24.40;47.60
21891;DHT22;11110;52.386;16.940;2023-04-15T12:58:45;24.40;47.50
21891;DHT22;11110;52.386;16.940;2023-04-15T13:01:14;24.40;47.30
21891;DHT22;11110;52.386;16.940;2023-04-15T13:03:42;24.40;47.80
21891;DHT22;11110;52.386;16.940;2023-04-15T13:06:11;24.40;47.80
21891;DHT22;11110;52.386;16.940;2023-04-15T13:08:40;24.40;47.70
21891;DHT22;11110;52.386;16.940;2023-04-15T13:11:25;24.50;47.80
21891;DHT22;11110;52.386;16.940;2023-04-15T13:13:53;24.50;47.80
21891;DHT22;11110;52.386;16.940;2023-04-15T13:16:23;24.50;47.50
21891;DHT22;11110;52.386;16.940;2023-04-15T13:18:51;24.50;47.40
21891;DHT22;11110;52.386;16.940;2023-04-15T13:21:20;24.70;47.70
21891;DHT22;11110;52.386;16.940;2023-04-15T13:23:48;24.60;47.80
21891;DHT22;11110;52.386;16.940;2023-04-15T13:26:18;24.60;47.90
21891;DHT22;11110;52.386;16.940;2023-04-15T13:28:47;24.60;48.20
21891;DHT22;11110;52.386;16.940;2023-04-15T13:31:16;24.60;47.70
21891;DHT22;11110;52.386;16.940;2023-04-15T13:33:44;24.70;47.30
21891;DHT22;11110;52.386;16.940;2023-04-15T13:36:13;24.70;47.20
21891;DHT22;11110;52.386;16.940;2023-04-15T13:38:41;24.80;47.20
21891;DHT22;11110;52.386;16.940;2023-04-15T13:41:10;24.80;47.30
21891;DHT22;11110;52.386;16.940;2023-04-15T13:43:39;24.80;47.60
21891;DHT22;11110;52.386;16.940;2023-04-15T13:46:09;24.80;47.70
21891;DHT22;11110;52.386;16.940;2023-04-15T13:48:37;24.80;47.60
21891;DHT22;11110;52.386;16.940;2023-04-15T13:51:06;24.80;47.50
21891;DHT22;11110;52.386;16.940;2023-04-15T13:53:34;24.80;47.20
21891;DHT22;11110;52.386;16.940;2023-04-15T13:56:06;24.80;47.20
21891;DHT22;11110;52.386;16.940;2023-04-15T13:58:35;24.80;47.50
21891;DHT22;11110;52.386;16.940;2023-04-15T14:01:04;24.80;47.60
21891;DHT22;11110;52.386;16.940;2023-04-15T14:03:35;24.80;48.40
21891;DHT22;11110;52.386;16.940;2023-04-15T14:06:05;24.80;47.60
21891;DHT22;11110;52.386;16.940;2023-04-15T14:08:33;24.90;47.60
21891;DHT22;11110;52.386;16.940;2023-04-15T14:11:02;24.90;47.60
21891;DHT22;11110;52.386;16.940;2023-04-15T14:13:30;24.90;47.70
21891;DHT22;11110;52.386;16.940;2023-04-15T14:15:59;24.90;47.60
21891;DHT22;11110;52.386;16.940;2023-04-15T14:18:27;25.00;47.80
21891;DHT22;11110;52.386;16.940;2023-04-15T14:20:57;24.90;47.90
21891;DHT22;11110;52.386;16.940;2023-04-15T14:23:26;24.90;48.80
21891;DHT22;11110;52.386;16.940;2023-04-15T14:25:55;25.00;48.00
21891;DHT22;11110;52.386;16.940;2023-04-15T14:28:23;25.00;48.30
21891;DHT22;11110;52.386;16.940;2023-04-15T14:30:52;24.20;48.60
21891;DHT22;11110;52.386;16.940;2023-04-15T14:33:21;25.10;48.30
21891;DHT22;11110;52.386;16.940;2023-04-15T14:35:50;25.10;48.20
21891;DHT22;11110;52.386;16.940;2023-04-15T14:38:20;25.10;48.40
21891;DHT22;11110;52.386;16.940;2023-04-15T14:40:48;25.30;48.50
21891;DHT22;11110;52.386;16.940;2023-04-15T14:43:17;25.20;48.70
21891;DHT22;11110;52.386;16.940;2023-04-15T14:45:45;25.30;48.80
21891;DHT22;11110;52.386;16.940;2023-04-15T14:48:15;25.30;48.50
21891;DHT22;11110;52.386;16.940;2023-04-15T14:50:43;25.30;48.60
21891;DHT22;11110;52.386;16.940;2023-04-15T14:53:12;25.30;48.40
21891;DHT22;11110;52.386;16.940;2023-04-15T14:55:41;25.30;48.30
21891;DHT22;11110;52.386;16.940;2023-04-15T14:58:11;25.40;48.40
21891;DHT22;11110;52.386;16.940;2023-04-15T15:00:39;25.30;48.40
21891;DHT22;11110;52.386;16.940;2023-04-15T15:03:10;25.30;48.40
21891;DHT22;11110;52.386;16.940;2023-04-15T15:05:40;25.30;48.00
21891;DHT22;11110;52.386;16.940;2023-04-15T15:08:08;25.30;47.90
21891;DHT22;11110;52.386;16.940;2023-04-15T15:10:38;25.30;48.20
21891;DHT22;11110;52.386;16.940;2023-04-15T15:13:17;25.30;48.20
21891;DHT22;11110;52.386;16.940;2023-04-15T15:15:46;25.30;48.20
21891;DHT22;11110;52.386;16.940;2023-04-15T15:18:16;25.30;48.50
21891;DHT22;11110;52.386;16.940;2023-04-15T15:20:45;25.30;48.50
21891;DHT22;11110;52.386;16.940;2023-04-15T15:23:14;25.30;48.70
21891;DHT22;11110;52.386;16.940;2023-04-15T15:25:44;25.30;48.40
21891;DHT22;11110;52.386;16.940;2023-04-15T15:28:13;25.30;47.90
21891;DHT22;11110;52.386;16.940;2023-04-15T15:30:42;25.30;48.10